Time;durP1;ratioP1;P1;durP2;ratioP2;P2;SDS_P1;SDS_P2;PMS_P1;PMS_P2;Temp;Humidity;BMP_temperature;BMP_pressure;BME280_temperature;BME280_humidity;BME280_pressure;Samples;Min_cycle;Max_cycle;Signal;HPM_P1;HPM_P2
2022/01/15 00:00:09;;;;;;;2.35;1.33;;;;;;;;;;5005130;28;20421;-53
2022/01/15 00:02:34;;;;;;;2.03;1.30;;;;;;;;;;5012781;28;20032;-55
2022/01/15 00:04:59;;;;;;;2.70;1.20;;;;;;;;;;5009879;28;20084;-54
2022/01/15 00:07:24;;;;;;;2.07;1.10;;;;;;;;;;5013936;28;21300;-54
2022/01/15 00:09:50;;;;;;;2.00;1.17;;;;;;;;;;5013690;28;20017;-53
2022/01/15 00:12:16;;;;;;;2.42;1.17;;;;;;;;;;5010039;28;20301;-53
2022/01/15 00:14:42;;;;;;;2.08;1.30;;;;;;;;;;5013346;28;20029;-54
2022/01/15 00:17:14;;;;;;;1.67;1.17;;;;;;;;;;5009856;28;20033;-54
2022/01/15 00:19:43;;;;;;;2.13;1.15;;;;;;;;;;5017813;28;20492;-53
2022/01/15 00:22:09;;;;;;;2.30;1.45;;;;;;;;;;5012084;28;20092;-53
2022/01/15 00:24:34;;;;;;;2.10;1.17;;;;;;;;;;5010667;28;20062;-53
2022/01/15 00:27:00;;;;;;;2.28;1.30;;;;;;;;;;5007406;28;20033;-53
2022/01/15 00:29:25;;;;;;;1.80;1.27;;;;;;;;;;5012943;28;20034;-52
2022/01/15 00:31:50;;;;;;;1.70;0.90;;;;;;;;;;5011408;28;20394;-55
2022/01/15 00:34:15;;;;;;;1.90;1.00;;;;;;;;;;5011710;28;20300;-53
2022/01/15 00:36:40;;;;;;;1.80;1.10;;;;;;;;;;5012106;28;20272;-52
2022/01/15 00:39:06;;;;;;;2.23;1.20;;;;;;;;;;5009138;28;20022;-53
2022/01/15 00:41:31;;;;;;;1.93;1.17;;;;;;;;;;5014284;28;20280;-53
2022/01/15 00:43:56;;;;;;;1.83;1.10;;;;;;;;;;5012897;28;20025;-55
2022/01/15 00:46:21;;;;;;;1.60;0.95;;;;;;;;;;5009799;28;20280;-53
2022/01/15 00:48:47;;;;;;;3.13;1.73;;;;;;;;;;5013226;28;20041;-52
2022/01/15 00:51:12;;;;;;;1.92;1.10;;;;;;;;;;5009245;28;20327;-52
2022/01/15 00:53:37;;;;;;;1.60;0.90;;;;;;;;;;5008399;28;20018;-52
2022/01/15 00:56:02;;;;;;;2.10;1.17;;;;;;;;;;5005023;28;20029;-53
2022/01/15 00:58:28;;;;;;;1.75;1.20;;;;;;;;;;5008859;28;20614;-54
2022/01/15 01:00:53;;;;;;;2.00;1.40;;;;;;;;;;5012613;28;20152;-54
2022/01/15 01:03:18;;;;;;;1.93;1.20;;;;;;;;;;5012696;28;20101;-54
2022/01/15 01:05:43;;;;;;;2.03;1.20;;;;;;;;;;5010755;28;20100;-52
2022/01/15 01:08:08;;;;;;;2.42;1.38;;;;;;;;;;5007282;28;20281;-54
2022/01/15 01:10:53;;;;;;;2.33;1.13;;;;;;;;;;5017842;28;20108;-53
2022/01/15 01:20:04;;;;;;;2.42;1.15;;;;;;;;;;5006931;28;20041;-53
2022/01/15 01:24:02;;;;;;;1.85;1.17;;;;;;;;;;5011331;28;20076;-53
2022/01/15 01:26:53;;;;;;;1.98;1.20;;;;;;;;;;5007007;28;20057;-53
2022/01/15 01:31:59;;;;;;;2.17;1.30;;;;;;;;;;5014716;28;20035;-54
2022/01/15 01:34:27;;;;;;;2.15;1.20;;;;;;;;;;5010303;28;20017;-54
2022/01/15 01:39:22;;;;;;;2.30;1.27;;;;;;;;;;5009408;28;20416;-54
2022/01/15 01:42:15;;;;;;;2.40;1.38;;;;;;;;;;5010737;28;20103;-54
2022/01/15 01:44:39;;;;;;;2.05;1.38;;;;;;;;;;5012155;28;20037;-54
2022/01/15 01:47:09;;;;;;;2.45;1.30;;;;;;;;;;5008752;28;20060;-53
2022/01/15 01:49:34;;;;;;;2.60;1.40;;;;;;;;;;5008816;28;20045;-54
2022/01/15 01:52:00;;;;;;;2.40;1.27;;;;;;;;;;5011435;28;20607;-55
2022/01/15 01:54:25;;;;;;;1.80;1.03;;;;;;;;;;5009668;28;20476;-53
2022/01/15 01:56:50;;;;;;;1.73;1.10;;;;;;;;;;5006755;28;20531;-54
2022/01/15 01:59:16;;;;;;;1.92;1.20;;;;;;;;;;5009498;28;20053;-54
2022/01/15 02:01:42;;;;;;;1.63;1.27;;;;;;;;;;5011825;28;20025;-54
2022/01/15 02:04:07;;;;;;;2.30;1.30;;;;;;;;;;5006555;28;20036;-54
2022/01/15 02:06:32;;;;;;;2.15;1.20;;;;;;;;;;5009452;28;20467;-54
2022/01/15 02:08:58;;;;;;;1.77;1.10;;;;;;;;;;5022245;28;20476;-53
2022/01/15 02:11:25;;;;;;;2.70;1.17;;;;;;;;;;5022938;28;20785;-54
2022/01/15 02:13:50;;;;;;;2.25;1.17;;;;;;;;;;5016291;28;20030;-55
2022/01/15 02:16:15;;;;;;;1.90;1.10;;;;;;;;;;5007376;28;20099;-54
2022/01/15 02:18:40;;;;;;;1.65;0.90;;;;;;;;;;5005658;28;20515;-55
2022/01/15 02:23:44;;;;;;;2.28;1.27;;;;;;;;;;5007858;28;20862;-56
2022/01/15 02:26:16;;;;;;;2.00;1.17;;;;;;;;;;5006323;28;20028;-56
2022/01/15 02:28:42;;;;;;;2.30;1.30;;;;;;;;;;5008924;28;21156;-54
2022/01/15 02:31:08;;;;;;;2.20;1.20;;;;;;;;;;5005495;28;20060;-54
2022/01/15 02:33:34;;;;;;;2.13;1.33;;;;;;;;;;5009765;28;20033;-53
2022/01/15 02:35:59;;;;;;;1.80;1.20;;;;;;;;;;5019625;28;20060;-54
2022/01/15 02:38:25;;;;;;;2.08;1.17;;;;;;;;;;5006479;28;20511;-53
2022/01/15 02:40:50;;;;;;;2.17;1.20;;;;;;;;;;5010457;28;20080;-53
2022/01/15 02:43:18;;;;;;;2.05;1.15;;;;;;;;;;5007464;28;20025;-53
2022/01/15 02:45:46;;;;;;;2.25;1.23;;;;;;;;;;5022268;28;20558;-53
2022/01/15 02:48:15;;;;;;;1.90;1.30;;;;;;;;;;5010831;28;20025;-52
2022/01/15 02:50:40;;;;;;;2.00;1.30;;;;;;;;;;5008106;28;20061;-55
2022/01/15 02:53:06;;;;;;;1.80;1.00;;;;;;;;;;5008654;28;20104;-55
2022/01/15 02:55:31;;;;;;;2.08;1.38;;;;;;;;;;5008699;28;20124;-54
2022/01/15 02:57:56;;;;;;;2.70;1.30;;;;;;;;;;5012846;28;20097;-55
2022/01/15 03:00:22;;;;;;;2.20;1.13;;;;;;;;;;5004216;28;20288;-55
2022/01/15 03:02:47;;;;;;;2.35;1.10;;;;;;;;;;5011590;28;20781;-55
2022/01/15 03:05:12;;;;;;;1.17;0.70;;;;;;;;;;5005250;28;20145;-55
2022/01/15 03:07:38;;;;;;;1.73;1.10;;;;;;;;;;5019520;28;20325;-54
2022/01/15 03:10:04;;;;;;;1.93;1.10;;;;;;;;;;5008006;28;20405;-54
2022/01/15 03:12:29;;;;;;;1.63;1.10;;;;;;;;;;5006053;28;20687;-54
2022/01/15 03:14:59;;;;;;;2.60;1.40;;;;;;;;;;5008734;28;20094;-54
2022/01/15 03:17:25;;;;;;;2.20;1.15;;;;;;;;;;5006780;28;20033;-54
2022/01/15 03:19:50;;;;;;;1.80;1.10;;;;;;;;;;5006778;28;20028;-56
2022/01/15 03:22:15;;;;;;;1.60;1.00;;;;;;;;;;5009216;28;20026;-55
2022/01/15 03:24:40;;;;;;;1.83;1.20;;;;;;;;;;5006344;28;20324;-56
2022/01/15 03:27:05;;;;;;;2.07;1.27;;;;;;;;;;5006556;28;20504;-53
2022/01/15 03:29:31;;;;;;;1.40;0.90;;;;;;;;;;5009529;28;20704;-56
2022/01/15 03:31:56;;;;;;;1.90;1.00;;;;;;;;;;5009982;28;20642;-53
2022/01/15 03:34:21;;;;;;;2.17;1.00;;;;;;;;;;5005750;28;20961;-55
2022/01/15 03:36:46;;;;;;;2.03;1.07;;;;;;;;;;5010904;28;20484;-56
2022/01/15 03:39:12;;;;;;;2.00;1.30;;;;;;;;;;5010584;28;20588;-55
2022/01/15 03:41:37;;;;;;;2.00;1.40;;;;;;;;;;5008274;28;20299;-54
2022/01/15 03:44:02;;;;;;;1.60;0.93;;;;;;;;;;5004485;28;20273;-54
2022/01/15 03:46:27;;;;;;;1.85;1.10;;;;;;;;;;5005812;28;20330;-54
2022/01/15 03:48:53;;;;;;;2.20;1.30;;;;;;;;;;5008641;28;20022;-52
2022/01/15 03:51:19;;;;;;;2.13;1.20;;;;;;;;;;5005923;28;20374;-53
2022/01/15 03:53:44;;;;;;;2.42;1.45;;;;;;;;;;5007380;28;20097;-55
2022/01/15 03:56:09;;;;;;;2.33;1.50;;;;;;;;;;5009758;28;20511;-53
2022/01/15 03:58:35;;;;;;;1.50;1.03;;;;;;;;;;5006265;28;20026;-54
2022/01/15 04:01:00;;;;;;;1.93;1.10;;;;;;;;;;5008198;28;20018;-54
2022/01/15 04:03:25;;;;;;;2.15;1.20;;;;;;;;;;5008367;28;20276;-55
2022/01/15 04:05:50;;;;;;;1.93;1.03;;;;;;;;;;5007442;28;20047;-54
2022/01/15 04:08:16;;;;;;;2.30;1.23;;;;;;;;;;5003637;28;20279;-56
2022/01/15 04:10:42;;;;;;;2.07;1.27;;;;;;;;;;5007732;28;20265;-54
2022/01/15 04:13:07;;;;;;;1.88;1.17;;;;;;;;;;5004936;28;20087;-54
2022/01/15 04:15:33;;;;;;;2.37;1.20;;;;;;;;;;5008444;28;20030;-55
2022/01/15 04:17:59;;;;;;;1.65;1.08;;;;;;;;;;5004398;28;20104;-52
2022/01/15 04:20:24;;;;;;;1.90;1.20;;;;;;;;;;5005437;28;20125;-54
2022/01/15 04:22:50;;;;;;;2.28;1.40;;;;;;;;;;5002088;28;20029;-53
2022/01/15 04:25:16;;;;;;;1.70;1.10;;;;;;;;;;5006607;28;20054;-53
2022/01/15 04:27:44;;;;;;;2.60;1.23;;;;;;;;;;5013657;28;20014;-53
2022/01/15 04:30:09;;;;;;;1.70;1.15;;;;;;;;;;5009446;28;20092;-52
2022/01/15 04:32:35;;;;;;;1.88;1.10;;;;;;;;;;5006139;28;20548;-53
2022/01/15 04:35:00;;;;;;;2.42;1.33;;;;;;;;;;5008649;28;20466;-53
2022/01/15 04:37:34;;;;;;;2.33;1.50;;;;;;;;;;5006661;28;20033;-54
2022/01/15 04:39:59;;;;;;;1.60;0.98;;;;;;;;;;5009679;28;20017;-53
2022/01/15 04:42:25;;;;;;;2.13;1.05;;;;;;;;;;5003881;28;20083;-56
2022/01/15 04:44:51;;;;;;;1.85;1.02;;;;;;;;;;5007673;28;20045;-55
2022/01/15 04:47:16;;;;;;;2.50;1.37;;;;;;;;;;5006355;28;20026;-54
2022/01/15 04:49:41;;;;;;;2.40;1.30;;;;;;;;;;5012680;28;20785;-55
2022/01/15 04:52:06;;;;;;;1.77;1.00;;;;;;;;;;5010835;28;20765;-56
2022/01/15 04:54:32;;;;;;;2.07;1.20;;;;;;;;;;5010590;28;20664;-53
2022/01/15 04:56:58;;;;;;;1.60;1.02;;;;;;;;;;5017325;28;20017;-55
2022/01/15 04:59:23;;;;;;;2.28;1.30;;;;;;;;;;5008953;28;20131;-53
2022/01/15 05:01:48;;;;;;;2.33;1.33;;;;;;;;;;5011250;28;20026;-53
2022/01/15 05:04:14;;;;;;;2.00;1.00;;;;;;;;;;5006662;28;20072;-52
2022/01/15 05:06:39;;;;;;;1.80;1.27;;;;;;;;;;5009792;28;20072;-52
2022/01/15 05:09:05;;;;;;;1.67;1.20;;;;;;;;;;5007899;28;20092;-53
2022/01/15 05:11:48;;;;;;;1.90;1.02;;;;;;;;;;5010787;28;20050;-56
2022/01/15 05:14:14;;;;;;;2.25;1.45;;;;;;;;;;5011763;28;20374;-55
2022/01/15 05:16:39;;;;;;;2.10;1.10;;;;;;;;;;5007329;28;20037;-53
2022/01/15 05:19:04;;;;;;;1.58;1.10;;;;;;;;;;5011003;28;20528;-54
2022/01/15 05:21:29;;;;;;;2.10;1.23;;;;;;;;;;5009668;28;20029;-55
2022/01/15 05:23:55;;;;;;;2.63;1.60;;;;;;;;;;5011053;28;20284;-56
2022/01/15 05:26:20;;;;;;;2.00;1.20;;;;;;;;;;5011946;28;20071;-56
2022/01/15 05:28:45;;;;;;;2.00;1.57;;;;;;;;;;5008802;28;20105;-55
2022/01/15 05:31:10;;;;;;;2.20;1.30;;;;;;;;;;5011895;28;20187;-55
2022/01/15 05:33:36;;;;;;;1.88;1.23;;;;;;;;;;5016108;28;20034;-56
2022/01/15 05:36:01;;;;;;;1.63;1.07;;;;;;;;;;5012875;28;20353;-56
2022/01/15 05:38:26;;;;;;;1.95;1.30;;;;;;;;;;5006099;28;20423;-56
2022/01/15 05:40:52;;;;;;;2.03;1.47;;;;;;;;;;5009993;28;20025;-58
2022/01/15 05:43:17;;;;;;;2.05;1.20;;;;;;;;;;5005673;28;20795;-57
2022/01/15 05:45:42;;;;;;;2.05;1.27;;;;;;;;;;5007256;28;20052;-56
2022/01/15 05:48:07;;;;;;;2.60;1.30;;;;;;;;;;5005644;28;20508;-55
2022/01/15 05:50:33;;;;;;;2.53;1.40;;;;;;;;;;5007178;28;20284;-55
2022/01/15 05:52:58;;;;;;;1.97;1.23;;;;;;;;;;5011021;28;20044;-58
2022/01/15 05:55:24;;;;;;;1.98;1.40;;;;;;;;;;5008273;28;20272;-56
2022/01/15 05:57:49;;;;;;;1.90;1.40;;;;;;;;;;5012272;28;20021;-56
2022/01/15 06:00:14;;;;;;;1.88;1.30;;;;;;;;;;5003245;28;20034;-57
2022/01/15 06:02:40;;;;;;;2.30;1.67;;;;;;;;;;5006304;28;20460;-55
2022/01/15 06:05:05;;;;;;;2.23;1.30;;;;;;;;;;5005422;28;20057;-55
2022/01/15 06:07:30;;;;;;;2.17;1.40;;;;;;;;;;5007897;28;20049;-55
2022/01/15 06:09:55;;;;;;;1.80;1.23;;;;;;;;;;5006098;28;20018;-55
2022/01/15 06:12:28;;;;;;;2.50;1.57;;;;;;;;;;5004964;28;20096;-56
2022/01/15 06:14:53;;;;;;;2.08;1.50;;;;;;;;;;5008888;28;20448;-56
2022/01/15 06:17:18;;;;;;;1.83;1.40;;;;;;;;;;5005888;28;20088;-57
2022/01/15 06:19:43;;;;;;;2.10;1.50;;;;;;;;;;5011574;28;20786;-58
2022/01/15 06:22:09;;;;;;;2.60;1.23;;;;;;;;;;5007054;28;20496;-53
2022/01/15 06:24:34;;;;;;;1.87;1.10;;;;;;;;;;5006178;28;20683;-54
2022/01/15 06:26:59;;;;;;;2.67;1.60;;;;;;;;;;5013228;28;20385;-55
2022/01/15 06:29:24;;;;;;;2.10;1.30;;;;;;;;;;5015591;28;20408;-55
2022/01/15 06:31:50;;;;;;;2.37;1.50;;;;;;;;;;5012517;28;20378;-55
2022/01/15 06:34:15;;;;;;;2.80;1.55;;;;;;;;;;5022269;28;20279;-54
2022/01/15 06:36:40;;;;;;;3.77;1.40;;;;;;;;;;5018417;28;20056;-53
2022/01/15 06:39:05;;;;;;;2.30;1.50;;;;;;;;;;5019335;28;20029;-57
2022/01/15 06:41:30;;;;;;;2.28;1.30;;;;;;;;;;5016038;28;20279;-54
2022/01/15 06:43:56;;;;;;;1.97;1.27;;;;;;;;;;5010495;28;20084;-56
2022/01/15 06:46:21;;;;;;;2.27;1.50;;;;;;;;;;5005707;28;20034;-56
2022/01/15 06:48:46;;;;;;;2.38;1.60;;;;;;;;;;5006422;28;20269;-56
2022/01/15 06:51:12;;;;;;;2.60;1.90;;;;;;;;;;5005039;28;20133;-54
2022/01/15 06:53:37;;;;;;;1.90;1.13;;;;;;;;;;5015219;28;20277;-52
2022/01/15 06:56:02;;;;;;;2.73;1.60;;;;;;;;;;4990686;28;20111;-51
2022/01/15 06:58:28;;;;;;;2.13;1.50;;;;;;;;;;5004281;28;20798;-56
2022/01/15 07:00:53;;;;;;;3.10;1.60;;;;;;;;;;5009161;28;20040;-55
2022/01/15 07:03:18;;;;;;;1.97;1.50;;;;;;;;;;5010841;28;20451;-57
2022/01/15 07:05:43;;;;;;;2.97;1.70;;;;;;;;;;5010200;28;20356;-54
2022/01/15 07:08:08;;;;;;;2.77;1.60;;;;;;;;;;5007989;28;20123;-56
2022/01/15 07:10:34;;;;;;;2.50;1.60;;;;;;;;;;5004425;28;20268;-56
2022/01/15 07:12:59;;;;;;;2.67;1.52;;;;;;;;;;5009765;28;20810;-57
2022/01/15 07:15:24;;;;;;;3.53;2.40;;;;;;;;;;5006948;28;20026;-57
2022/01/15 07:17:50;;;;;;;8.73;6.10;;;;;;;;;;5020703;28;20284;-55
2022/01/15 07:20:16;;;;;;;11.55;8.13;;;;;;;;;;5021816;28;20412;-55
2022/01/15 07:22:41;;;;;;;15.07;8.85;;;;;;;;;;5019979;28;20037;-54
2022/01/15 07:25:07;;;;;;;13.45;9.20;;;;;;;;;;5010361;28;20553;-52
2022/01/15 07:27:32;;;;;;;12.27;8.60;;;;;;;;;;5008257;28;21312;-52
2022/01/15 07:29:57;;;;;;;10.70;7.77;;;;;;;;;;5009797;28;20065;-56
2022/01/15 07:32:23;;;;;;;12.23;8.17;;;;;;;;;;5012926;28;20070;-56
2022/01/15 07:34:48;;;;;;;11.23;7.90;;;;;;;;;;5008806;28;20264;-57
2022/01/15 07:37:13;;;;;;;10.60;7.37;;;;;;;;;;5013142;28;20100;-53
2022/01/15 07:39:39;;;;;;;11.65;7.82;;;;;;;;;;5019867;28;20268;-57
2022/01/15 07:42:04;;;;;;;13.82;8.60;;;;;;;;;;5018565;28;20499;-53
2022/01/15 07:44:29;;;;;;;10.25;7.38;;;;;;;;;;5016245;28;20544;-57
2022/01/15 07:46:54;;;;;;;11.10;7.10;;;;;;;;;;5005956;28;20563;-53
2022/01/15 07:49:20;;;;;;;9.30;6.80;;;;;;;;;;5011458;28;20488;-56
2022/01/15 07:51:45;;;;;;;10.75;7.30;;;;;;;;;;5009142;28;20046;-54
2022/01/15 07:54:10;;;;;;;9.57;6.47;;;;;;;;;;5012761;28;20532;-55
2022/01/15 07:56:36;;;;;;;9.67;6.63;;;;;;;;;;5003770;28;20675;-59
2022/01/15 07:59:01;;;;;;;9.63;6.55;;;;;;;;;;5013851;28;20408;-62
2022/01/15 08:01:28;;;;;;;9.67;6.83;;;;;;;;;;5017929;28;20121;-61
2022/01/15 08:03:53;;;;;;;10.05;5.97;;;;;;;;;;5016921;28;20023;-58
2022/01/15 08:06:18;;;;;;;10.13;5.93;;;;;;;;;;5017441;28;20442;-55
2022/01/15 08:08:43;;;;;;;8.00;5.90;;;;;;;;;;5012731;28;20275;-56
2022/01/15 08:11:08;;;;;;;9.60;6.03;;;;;;;;;;5018639;28;20072;-57
2022/01/15 08:13:34;;;;;;;10.17;5.87;;;;;;;;;;5012658;28;20339;-54
2022/01/15 08:16:01;;;;;;;9.90;5.63;;;;;;;;;;5018257;28;20831;-53
2022/01/15 08:18:26;;;;;;;7.57;5.38;;;;;;;;;;5009195;28;20272;-56
2022/01/15 08:20:52;;;;;;;9.57;5.43;;;;;;;;;;5016336;28;20384;-57
2022/01/15 08:23:17;;;;;;;8.65;5.55;;;;;;;;;;5014686;28;20048;-55
2022/01/15 08:25:42;;;;;;;8.03;5.30;;;;;;;;;;5017437;28;20068;-58
2022/01/15 08:28:07;;;;;;;7.40;5.35;;;;;;;;;;5017880;28;20033;-57
2022/01/15 08:30:33;;;;;;;9.37;5.20;;;;;;;;;;5011283;28;20513;-56
2022/01/15 08:32:58;;;;;;;7.27;5.17;;;;;;;;;;5009676;28;20292;-57
2022/01/15 08:35:23;;;;;;;6.43;4.80;;;;;;;;;;5010385;28;20334;-57
2022/01/15 08:37:48;;;;;;;8.73;4.93;;;;;;;;;;5012410;28;20743;-57
2022/01/15 08:40:14;;;;;;;7.15;4.78;;;;;;;;;;5012199;28;20268;-55
2022/01/15 08:42:39;;;;;;;6.72;5.05;;;;;;;;;;5009851;28;20493;-55
2022/01/15 08:45:05;;;;;;;8.13;5.43;;;;;;;;;;5010226;28;20063;-57
2022/01/15 08:47:31;;;;;;;7.10;4.80;;;;;;;;;;5007131;28;20281;-55
2022/01/15 08:49:56;;;;;;;6.50;4.53;;;;;;;;;;5016875;28;21252;-59
2022/01/15 08:52:21;;;;;;;7.93;5.13;;;;;;;;;;5016564;28;20046;-57
2022/01/15 08:54:46;;;;;;;6.22;4.47;;;;;;;;;;5016634;28;20786;-55
2022/01/15 08:57:12;;;;;;;6.47;5.17;;;;;;;;;;5014488;28;20018;-57
2022/01/15 08:59:37;;;;;;;7.07;4.75;;;;;;;;;;5016373;28;20033;-59
2022/01/15 09:02:02;;;;;;;8.10;4.93;;;;;;;;;;5015222;28;20022;-58
2022/01/15 09:04:28;;;;;;;7.57;4.78;;;;;;;;;;5022247;28;20029;-59
2022/01/15 09:06:53;;;;;;;6.47;4.50;;;;;;;;;;5011943;28;20473;-56
2022/01/15 09:09:18;;;;;;;6.35;4.65;;;;;;;;;;5020794;28;20623;-55
2022/01/15 09:11:44;;;;;;;6.27;4.40;;;;;;;;;;5017907;28;20515;-57
2022/01/15 09:14:10;;;;;;;6.65;4.47;;;;;;;;;;5016856;28;20294;-56
2022/01/15 09:16:35;;;;;;;6.15;4.40;;;;;;;;;;5013159;28;20184;-58
2022/01/15 09:19:00;;;;;;;7.40;4.43;;;;;;;;;;5017065;28;20104;-56
2022/01/15 09:21:26;;;;;;;5.97;4.25;;;;;;;;;;5014775;28;20010;-57
2022/01/15 09:23:51;;;;;;;5.43;4.00;;;;;;;;;;5022689;28;20052;-56
2022/01/15 09:26:22;;;;;;;6.50;4.03;;;;;;;;;;5015159;28;20022;-56
2022/01/15 09:31:32;;;;;;;7.03;4.60;;;;;;;;;;5015410;28;20539;-56
2022/01/15 09:33:57;;;;;;;6.13;4.15;;;;;;;;;;5017466;28;20029;-55
2022/01/15 09:36:22;;;;;;;6.40;4.37;;;;;;;;;;5012277;28;20022;-55
2022/01/15 09:38:47;;;;;;;6.80;4.50;;;;;;;;;;5022403;28;20033;-57
2022/01/15 09:41:13;;;;;;;5.35;4.05;;;;;;;;;;5012659;28;20660;-54
2022/01/15 09:43:39;;;;;;;6.13;3.80;;;;;;;;;;5020088;28;20061;-56
2022/01/15 09:46:04;;;;;;;5.78;3.80;;;;;;;;;;5015119;28;20026;-54
2022/01/15 09:48:30;;;;;;;5.68;3.80;;;;;;;;;;5020710;28;20068;-53
2022/01/15 09:50:55;;;;;;;6.30;4.47;;;;;;;;;;5010488;28;20117;-57
2022/01/15 09:53:20;;;;;;;5.53;3.60;;;;;;;;;;5019316;28;20101;-56
2022/01/15 09:55:46;;;;;;;5.80;3.63;;;;;;;;;;5012826;28;20265;-55
2022/01/15 09:58:12;;;;;;;6.25;4.20;;;;;;;;;;5017264;28;20028;-57
2022/01/15 10:00:37;;;;;;;5.88;3.92;;;;;;;;;;5010148;28;20014;-54
2022/01/15 10:03:02;;;;;;;5.93;3.93;;;;;;;;;;5021507;28;20013;-53
2022/01/15 10:05:27;;;;;;;6.73;3.43;;;;;;;;;;5015874;28;20026;-51
2022/01/15 10:07:59;;;;;;;5.07;3.70;;;;;;;;;;5016672;28;20292;-56
2022/01/15 10:10:24;;;;;;;6.90;3.83;;;;;;;;;;5012330;28;20037;-56
2022/01/15 10:12:49;;;;;;;4.60;3.65;;;;;;;;;;5021367;28;20067;-53
2022/01/15 10:15:15;;;;;;;5.25;3.63;;;;;;;;;;5023760;28;20094;-59
2022/01/15 10:17:40;;;;;;;5.45;3.58;;;;;;;;;;5017876;28;20037;-55
2022/01/15 10:20:10;;;;;;;4.95;3.80;;;;;;;;;;5012011;28;20344;-57
2022/01/15 10:22:38;;;;;;;6.18;3.40;;;;;;;;;;5019177;28;20405;-55
2022/01/15 10:25:06;;;;;;;5.75;3.72;;;;;;;;;;5011186;28;20121;-55
2022/01/15 10:27:35;;;;;;;6.25;3.30;;;;;;;;;;5017849;28;20038;-58
2022/01/15 10:30:04;;;;;;;5.00;3.47;;;;;;;;;;5014717;28;20052;-56
2022/01/15 10:32:30;;;;;;;5.63;3.40;;;;;;;;;;5016538;28;20049;-59
2022/01/15 10:34:55;;;;;;;4.78;3.30;;;;;;;;;;5022976;28;20028;-54
2022/01/15 10:37:22;;;;;;;5.15;3.50;;;;;;;;;;5016993;28;20017;-58
2022/01/15 10:39:53;;;;;;;5.53;3.15;;;;;;;;;;5015596;28;20041;-58
2022/01/15 10:42:23;;;;;;;4.93;3.45;;;;;;;;;;5014987;28;20038;-55
2022/01/15 10:44:48;;;;;;;4.78;3.40;;;;;;;;;;5012266;28;20033;-57
2022/01/15 10:47:15;;;;;;;4.63;3.20;;;;;;;;;;5019974;28;20037;-59
2022/01/15 10:49:41;;;;;;;4.93;3.25;;;;;;;;;;5013951;28;20026;-59
2022/01/15 10:52:07;;;;;;;5.43;3.15;;;;;;;;;;5014082;28;20562;-59
2022/01/15 13:03:25;;;;;;;8.55;4.10;;;;;;;;;;5016736;22;20068;-61
2022/01/15 13:05:54;;;;;;;6.47;4.35;;;;;;;;;;4982120;28;20038;-57
2022/01/15 13:08:24;;;;;;;8.83;5.83;;;;;;;;;;5015289;28;20019;-58
2022/01/15 13:10:56;;;;;;;8.98;5.95;;;;;;;;;;5015473;28;20272;-57
2022/01/15 13:13:22;;;;;;;8.95;5.60;;;;;;;;;;5011232;28;20037;-57
2022/01/15 13:15:48;;;;;;;7.95;5.15;;;;;;;;;;5009917;28;20423;-57
2022/01/15 13:18:16;;;;;;;8.73;5.97;;;;;;;;;;5021248;28;20021;-55
2022/01/15 13:20:42;;;;;;;10.45;5.97;;;;;;;;;;5008600;28;20038;-55
2022/01/15 13:23:07;;;;;;;15.73;9.45;;;;;;;;;;5019462;28;20028;-61
2022/01/15 13:25:32;;;;;;;15.68;9.07;;;;;;;;;;5020645;28;20514;-60
2022/01/15 13:27:58;;;;;;;11.27;7.25;;;;;;;;;;5020492;28;20075;-57
2022/01/15 13:30:23;;;;;;;9.27;6.63;;;;;;;;;;5019627;28;20391;-61
2022/01/15 13:32:51;;;;;;;11.43;6.57;;;;;;;;;;4995709;28;20050;-65
2022/01/15 13:35:19;;;;;;;8.60;5.95;;;;;;;;;;5006972;28;20049;-64
2022/01/15 13:37:51;;;;;;;8.75;5.95;;;;;;;;;;5011109;28;20029;-65
2022/01/15 13:40:32;;;;;;;9.20;6.35;;;;;;;;;;5017585;28;20105;-59
2022/01/15 13:42:57;;;;;;;8.48;5.78;;;;;;;;;;5013939;28;20021;-66
2022/01/15 13:45:23;;;;;;;9.02;6.22;;;;;;;;;;5008823;28;20076;-70
2022/01/15 13:47:48;;;;;;;10.32;6.00;;;;;;;;;;5007686;28;20113;-73
2022/01/15 13:53:10;;;;;;;7.45;5.72;;;;;;;;;;5006530;28;20052;-63
2022/01/15 13:55:35;;;;;;;8.40;5.78;;;;;;;;;;5019027;28;20144;-65
2022/01/15 13:58:14;;;;;;;8.65;6.25;;;;;;;;;;5022481;28;20564;-57
2022/01/15 14:00:39;;;;;;;7.28;5.35;;;;;;;;;;5022638;28;20025;-56
2022/01/15 14:03:05;;;;;;;7.95;5.70;;;;;;;;;;4995435;28;20132;-62
2022/01/15 14:05:30;;;;;;;6.72;5.40;;;;;;;;;;5018712;28;20032;-59
2022/01/15 14:07:55;;;;;;;7.95;5.85;;;;;;;;;;5014393;28;20593;-59
2022/01/15 14:10:23;;;;;;;9.30;5.73;;;;;;;;;;5020916;28;20033;-60
2022/01/15 14:13:05;;;;;;;9.13;5.65;;;;;;;;;;5010972;28;20454;-57
2022/01/15 14:15:31;;;;;;;7.00;5.93;;;;;;;;;;5013040;28;20557;-61
2022/01/15 14:17:59;;;;;;;8.52;6.05;;;;;;;;;;5016363;28;20026;-58
2022/01/15 14:20:50;;;;;;;8.98;5.70;;;;;;;;;;5021047;28;20029;-57
2022/01/15 14:23:25;;;;;;;8.85;6.18;;;;;;;;;;4997782;28;20010;-61
2022/01/15 14:25:50;;;;;;;8.73;6.28;;;;;;;;;;5004657;28;20029;-59
2022/01/15 14:28:22;;;;;;;10.02;6.10;;;;;;;;;;5007712;28;20645;-62
2022/01/15 14:30:50;;;;;;;8.05;6.03;;;;;;;;;;5009643;28;20018;-59
2022/01/15 14:33:16;;;;;;;7.25;5.32;;;;;;;;;;4995728;28;20073;-55
2022/01/15 14:35:44;;;;;;;8.27;5.15;;;;;;;;;;5018095;28;20052;-55
2022/01/15 14:38:09;;;;;;;7.10;5.10;;;;;;;;;;5004648;28;20513;-55
2022/01/15 14:40:35;;;;;;;8.32;4.82;;;;;;;;;;5019103;28;20100;-56
2022/01/15 14:43:00;;;;;;;7.80;5.10;;;;;;;;;;5019672;28;20025;-57
2022/01/15 14:45:25;;;;;;;6.77;4.20;;;;;;;;;;5005337;28;20272;-56
2022/01/15 14:47:51;;;;;;;7.55;4.93;;;;;;;;;;5002081;28;20327;-55
2022/01/15 14:50:17;;;;;;;7.47;4.70;;;;;;;;;;5008469;28;20025;-56
2022/01/15 14:52:42;;;;;;;6.50;4.60;;;;;;;;;;5012898;28;20096;-55
2022/01/15 14:55:08;;;;;;;6.40;4.23;;;;;;;;;;5002601;28;20026;-55
2022/01/15 14:57:33;;;;;;;6.22;4.40;;;;;;;;;;5002168;28;21456;-55
2022/01/15 14:59:58;;;;;;;6.32;4.18;;;;;;;;;;5002749;28;20112;-55
2022/01/15 15:02:24;;;;;;;6.70;3.85;;;;;;;;;;5002264;28;20058;-55
2022/01/15 15:04:49;;;;;;;6.85;3.80;;;;;;;;;;5002898;28;20712;-55
2022/01/15 15:07:14;;;;;;;5.40;3.70;;;;;;;;;;5002379;28;20026;-56
2022/01/15 15:09:39;;;;;;;6.47;4.30;;;;;;;;;;5003262;28;20278;-55
2022/01/15 15:12:05;;;;;;;5.35;4.00;;;;;;;;;;5021719;28;20288;-55
2022/01/15 15:14:30;;;;;;;6.30;4.35;;;;;;;;;;5022249;28;20022;-54
2022/01/15 15:16:55;;;;;;;5.57;3.72;;;;;;;;;;5022131;28;20108;-55
2022/01/15 15:19:21;;;;;;;6.68;3.95;;;;;;;;;;5022040;28;20091;-56
2022/01/15 15:21:46;;;;;;;5.68;3.70;;;;;;;;;;5021502;28;20021;-54
2022/01/15 15:24:11;;;;;;;5.20;3.93;;;;;;;;;;5016758;28;20032;-54
2022/01/15 15:26:36;;;;;;;5.23;3.70;;;;;;;;;;5002210;28;20276;-55
2022/01/15 15:29:02;;;;;;;6.05;3.90;;;;;;;;;;5002170;28;20265;-54
2022/01/15 15:31:27;;;;;;;5.47;3.80;;;;;;;;;;5016261;28;20566;-56
2022/01/15 15:33:54;;;;;;;4.80;3.70;;;;;;;;;;5021389;28;20491;-55
2022/01/15 15:36:19;;;;;;;4.75;3.40;;;;;;;;;;5021467;28;21070;-56
2022/01/15 15:38:45;;;;;;;5.28;3.70;;;;;;;;;;5021772;28;20041;-56
2022/01/15 15:41:10;;;;;;;7.70;3.90;;;;;;;;;;5020759;28;20021;-58
2022/01/15 15:43:36;;;;;;;7.13;3.60;;;;;;;;;;5017870;28;20423;-56
2022/01/15 15:46:01;;;;;;;11.07;4.25;;;;;;;;;;5019802;28;20029;-55
2022/01/15 15:48:26;;;;;;;10.03;3.87;;;;;;;;;;5018277;28;20083;-55
2022/01/15 15:50:51;;;;;;;11.18;4.00;;;;;;;;;;5019998;28;20276;-55
2022/01/15 15:53:17;;;;;;;9.93;4.00;;;;;;;;;;5015678;28;20095;-56
2022/01/15 15:55:42;;;;;;;8.77;3.80;;;;;;;;;;5021377;28;20690;-55
2022/01/15 15:58:07;;;;;;;7.90;3.72;;;;;;;;;;5020296;28;20363;-54
2022/01/15 16:00:32;;;;;;;7.67;3.93;;;;;;;;;;5019227;28;20036;-56
2022/01/15 16:02:58;;;;;;;7.07;3.65;;;;;;;;;;4999970;28;20320;-53
2022/01/15 16:05:23;;;;;;;7.07;3.65;;;;;;;;;;5032646;28;20024;-54
2022/01/15 16:07:48;;;;;;;8.70;3.40;;;;;;;;;;5023792;28;20093;-54
2022/01/15 16:10:17;;;;;;;6.25;3.25;;;;;;;;;;5023062;28;20025;-53
2022/01/15 16:12:43;;;;;;;7.73;4.30;;;;;;;;;;5029746;28;20103;-54
2022/01/15 16:15:08;;;;;;;6.10;3.22;;;;;;;;;;5041124;28;20263;-53
2022/01/15 16:17:33;;;;;;;7.32;3.55;;;;;;;;;;5041157;28;20025;-54
2022/01/15 16:19:59;;;;;;;4.88;3.10;;;;;;;;;;5040665;28;20025;-53
2022/01/15 16:22:24;;;;;;;5.03;3.07;;;;;;;;;;5034326;28;20014;-53
2022/01/15 16:24:49;;;;;;;5.82;3.40;;;;;;;;;;5020800;28;20344;-53
2022/01/15 16:27:14;;;;;;;8.37;4.27;;;;;;;;;;5020262;28;20076;-53
2022/01/15 16:29:41;;;;;;;6.90;3.30;;;;;;;;;;5021680;28;20733;-53
2022/01/15 16:32:07;;;;;;;8.43;3.92;;;;;;;;;;5031118;28;20033;-53
2022/01/15 16:34:32;;;;;;;6.15;3.35;;;;;;;;;;5026126;28;20438;-56
2022/01/15 16:36:58;;;;;;;7.07;3.90;;;;;;;;;;5030715;28;20044;-56
2022/01/15 16:39:24;;;;;;;5.07;3.22;;;;;;;;;;5019418;28;20375;-53
2022/01/15 16:41:49;;;;;;;6.07;3.20;;;;;;;;;;5025163;28;20144;-56
2022/01/15 16:44:15;;;;;;;4.93;3.40;;;;;;;;;;5026046;28;20018;-57
2022/01/15 16:46:40;;;;;;;6.47;3.35;;;;;;;;;;5011790;28;20306;-58
2022/01/15 16:49:06;;;;;;;7.50;3.25;;;;;;;;;;5028377;28;20080;-55
2022/01/15 16:51:31;;;;;;;7.20;3.67;;;;;;;;;;5007700;28;20554;-57
2022/01/15 16:53:56;;;;;;;6.47;4.05;;;;;;;;;;5037696;28;20029;-56
2022/01/15 16:56:21;;;;;;;7.43;3.87;;;;;;;;;;5029010;28;20014;-55
2022/01/15 16:58:47;;;;;;;7.82;4.07;;;;;;;;;;5027374;28;20338;-55
2022/01/15 17:01:12;;;;;;;6.22;3.88;;;;;;;;;;5035511;28;20483;-56
2022/01/15 17:03:38;;;;;;;7.78;4.70;;;;;;;;;;5034254;28;20060;-56
2022/01/15 17:06:03;;;;;;;8.60;4.47;;;;;;;;;;5022647;28;20024;-54